createdAt,value
2022-07-29T00:00:21.826Z,98146.12
2022-07-29T00:01:24.596Z,98144.56
2022-07-29T00:02:28.193Z,98148.75
2022-07-29T00:03:31.289Z,98145.72
2022-07-29T00:04:36.815Z,98146.09
2022-07-29T00:05:41.516Z,98150.66
2022-07-29T00:06:44.255Z,98145.31
2022-07-29T00:07:47.116Z,98143.78
2022-07-29T00:08:49.818Z,98133.06
2022-07-29T00:09:52.800Z,98144.50
2022-07-29T00:10:55.603Z,98151.41
2022-07-29T00:12:00.877Z,98140.66
2022-07-29T00:13:03.928Z,98143.75
2022-07-29T00:14:06.748Z,98144.13
2022-07-29T00:15:09.945Z,98143.75
2022-07-29T00:16:16.817Z,98141.47
2022-07-29T00:17:19.532Z,98149.09
2022-07-29T00:18:22.185Z,98145.66
2022-07-29T00:19:25.016Z,98147.56
2022-07-29T00:20:28.516Z,98143.72
2022-07-29T00:21:31.429Z,98140.13
2022-07-29T00:22:34.132Z,98139.03
2022-07-29T00:23:37.080Z,98141.34
2022-07-29T00:24:45.824Z,98149.81
2022-07-29T00:25:48.620Z,98152.91
2022-07-29T00:26:51.473Z,98155.84
2022-07-29T00:27:54.125Z,98148.97
2022-07-29T00:29:30.813Z,98147.88
2022-07-29T00:30:19.649Z,98147.88
2022-07-29T00:31:22.759Z,98145.91
2022-07-29T00:32:28.859Z,98151.28
2022-07-29T00:33:31.670Z,98149.03
2022-07-29T00:34:52.968Z,98147.91
2022-07-29T00:35:55.729Z,98156.69
2022-07-29T00:36:59.925Z,98147.50
2022-07-29T00:38:02.617Z,98150.91
2022-07-29T00:39:05.318Z,98153.25
2022-07-29T00:40:12.056Z,98151.97
2022-07-29T00:41:14.924Z,98151.63
2022-07-29T00:42:18.032Z,98145.12
2022-07-29T00:43:20.937Z,98143.28
2022-07-29T00:44:23.665Z,98147.81
2022-07-29T00:45:26.606Z,98149.72
2022-07-29T00:46:29.318Z,98147.03
2022-07-29T00:47:32.104Z,98143.19
2022-07-29T00:48:34.923Z,98146.97
2022-07-29T00:49:39.405Z,98144.69
2022-07-29T00:50:42.237Z,98147.47
2022-07-29T00:51:45.410Z,98148.56
2022-07-29T00:52:49.268Z,98144.72
2022-07-29T00:53:52.202Z,98149.28
2022-07-29T00:54:55.022Z,98147.38
2022-07-29T00:55:59.106Z,98147.72
2022-07-29T00:57:02.981Z,98141.28
2022-07-29T00:58:09.951Z,98143.94
2022-07-29T00:59:12.758Z,98142.03
2022-07-29T01:00:23.201Z,98153.06
2022-07-29T01:02:34.185Z,98139.78
2022-07-29T01:03:36.987Z,98145.09
2022-07-29T01:04:40.401Z,98141.72
2022-07-29T01:05:50.788Z,98145.06
2022-07-29T01:08:04.157Z,98133.66
2022-07-29T01:09:07.930Z,98136.28
2022-07-29T01:10:11.387Z,98137.00
2022-07-29T01:11:15.183Z,98137.34
2022-07-29T01:12:29.037Z,98132.44
2022-07-29T01:13:32.533Z,98127.84
2022-07-29T01:14:36.500Z,98131.69
2022-07-29T01:15:50.790Z,98135.13
2022-07-29T01:17:02.938Z,98135.88
2022-07-29T01:18:22.153Z,98137.38
2022-07-29T01:19:54.106Z,98140.84
2022-07-29T01:21:27.175Z,98134.34
2022-07-29T01:22:48.270Z,98142.75
2022-07-29T01:24:23.196Z,98138.16
2022-07-29T01:26:10.515Z,98133.87
2022-07-29T01:27:39.644Z,98136.59
2022-07-29T01:28:57.102Z,98138.19
2022-07-29T01:30:05.192Z,98130.41
2022-07-29T01:31:12.412Z,98127.00
2022-07-29T01:32:30.663Z,98128.50
2022-07-29T01:33:50.953Z,98135.00
2022-07-29T01:34:59.736Z,98129.31
2022-07-29T01:36:12.175Z,98136.13
2022-07-29T01:37:27.364Z,98131.56
2022-07-29T01:38:30.410Z,98128.91
2022-07-29T01:39:36.795Z,98133.47
2022-07-29T01:40:47.793Z,98128.91
2022-07-29T01:42:03.297Z,98132.75
2022-07-29T01:43:13.875Z,98126.66
2022-07-29T01:44:19.872Z,98131.25
2022-07-29T01:45:51.714Z,98134.66
2022-07-29T01:47:00.058Z,98134.59
2022-07-29T01:48:34.514Z,98129.22
2022-07-29T01:49:41.483Z,98133.37
2022-07-29T01:51:03.123Z,98132.63
2022-07-29T01:52:12.309Z,98131.91
2022-07-29T01:53:23.284Z,98131.44
2022-07-29T01:54:38.777Z,98141.03
2022-07-29T01:55:46.057Z,98129.97
2022-07-29T01:56:52.540Z,98140.66
2022-07-29T01:57:57.844Z,98125.72
2022-07-29T01:59:04.339Z,98137.19
2022-07-29T02:00:08.228Z,98123.47
2022-07-29T02:01:13.798Z,98125.72
2022-07-29T02:02:19.529Z,98124.53
2022-07-29T02:03:23.888Z,98122.69
2022-07-29T02:04:30.186Z,98120.78
2022-07-29T02:05:35.654Z,98126.41
2022-07-29T02:06:41.960Z,98126.13
2022-07-29T02:07:47.543Z,98126.06
2022-07-29T02:08:53.929Z,98120.75
2022-07-29T02:09:58.726Z,98129.88
2022-07-29T02:11:04.755Z,98129.94
2022-07-29T02:12:08.602Z,98125.69
2022-07-29T02:13:15.050Z,98131.81
2022-07-29T02:14:20.510Z,98127.22
2022-07-29T02:15:26.516Z,98127.19
2022-07-29T02:16:34.048Z,98123.44
2022-07-29T02:17:47.002Z,98126.06
2022-07-29T02:18:52.647Z,98120.00
2022-07-29T02:19:59.882Z,98126.53
2022-07-29T02:21:04.595Z,98121.50
2022-07-29T02:22:08.699Z,98114.28
2022-07-29T02:23:14.263Z,98121.13
2022-07-29T02:24:19.605Z,98114.59
2022-07-29T02:25:24.903Z,98111.25
2022-07-29T02:26:30.590Z,98112.81
2022-07-29T02:27:36.073Z,98119.25
2022-07-29T02:28:42.173Z,98109.75
2022-07-29T02:29:48.080Z,98110.87
2022-07-29T02:30:53.501Z,98115.88
2022-07-29T02:31:59.977Z,98115.12
2022-07-29T02:33:04.596Z,98111.31
2022-07-29T02:34:10.720Z,98126.25
2022-07-29T02:35:19.914Z,98116.22
2022-07-29T02:36:24.983Z,98120.75
2022-07-29T02:37:29.088Z,98121.19
2022-07-29T02:38:51.494Z,98116.16
2022-07-29T02:39:56.282Z,98118.34
2022-07-29T02:41:01.299Z,98114.97
2022-07-29T02:42:08.471Z,98109.19
2022-07-29T02:43:12.183Z,98116.91
2022-07-29T02:44:18.922Z,98109.31
2022-07-29T02:45:22.816Z,98110.09
2022-07-29T02:47:07.527Z,98121.88
2022-07-29T02:48:16.469Z,98107.44
2022-07-29T02:49:22.159Z,98113.09
2022-07-29T02:50:38.640Z,98114.59
2022-07-29T02:52:04.148Z,98116.50
2022-07-29T02:53:21.319Z,98112.34
2022-07-29T02:54:45.934Z,98108.50
2022-07-29T02:55:57.593Z,98117.66
2022-07-29T02:57:06.116Z,98110.50
2022-07-29T02:58:31.147Z,98114.59
2022-07-29T02:59:37.941Z,98108.91
2022-07-29T03:00:42.154Z,98113.41
2022-07-29T03:01:46.002Z,98112.50
2022-07-29T03:02:53.693Z,98112.97
2022-07-29T03:03:57.132Z,98114.00
2022-07-29T03:05:01.193Z,98115.19
2022-07-29T03:06:05.216Z,98109.47
2022-07-29T03:07:08.357Z,98108.31
2022-07-29T03:08:14.056Z,98107.25
2022-07-29T03:09:17.232Z,98114.09
2022-07-29T03:10:20.158Z,98118.69
2022-07-29T03:11:41.437Z,98115.22
2022-07-29T03:12:47.107Z,98116.28
2022-07-29T03:13:50.465Z,98108.31
2022-07-29T03:14:54.484Z,98111.75
2022-07-29T03:16:00.304Z,98115.16
2022-07-29T03:17:04.217Z,98117.91
2022-07-29T03:18:07.849Z,98115.19
2022-07-29T03:19:10.719Z,98119.75
2022-07-29T03:20:14.795Z,98114.72
2022-07-29T03:21:17.952Z,98116.69
2022-07-29T03:22:20.945Z,98119.00
2022-07-29T03:23:25.136Z,98117.91
2022-07-29T03:24:38.030Z,98110.25
2022-07-29T03:25:40.899Z,98110.94
2022-07-29T03:26:43.850Z,98116.63
2022-07-29T03:27:47.502Z,98112.00
2022-07-29T03:28:50.136Z,98118.94
2022-07-29T03:29:52.895Z,98116.97
2022-07-29T03:30:56.236Z,98112.34
2022-07-29T03:31:59.448Z,98110.41
2022-07-29T03:33:02.205Z,98112.06
2022-07-29T03:34:05.026Z,98123.06
2022-07-29T03:35:08.787Z,98120.03
2022-07-29T03:36:12.918Z,98113.19
2022-07-29T03:37:15.688Z,98116.13
2022-07-29T03:38:18.458Z,98110.13
2022-07-29T03:39:24.276Z,98113.25
2022-07-29T03:40:52.415Z,98114.81
2022-07-29T03:41:59.147Z,98112.91
2022-07-29T03:43:03.407Z,98114.69
2022-07-29T03:44:08.453Z,98114.75
2022-07-29T03:45:18.449Z,98121.19
2022-07-29T03:46:25.198Z,98118.87
2022-07-29T03:47:43.555Z,98111.72
2022-07-29T03:49:00.265Z,98107.16
2022-07-29T03:50:07.848Z,98114.72
2022-07-29T03:51:14.333Z,98111.00
2022-07-29T03:52:17.798Z,98118.59
2022-07-29T03:53:20.761Z,98113.22
2022-07-29T03:54:23.954Z,98116.97
2022-07-29T03:55:29.471Z,98124.16
2022-07-29T03:56:35.693Z,98121.53
2022-07-29T03:57:40.939Z,98122.00
2022-07-29T03:58:45.519Z,98123.47
2022-07-29T03:59:48.952Z,98120.78
2022-07-29T04:00:52.170Z,98131.03
2022-07-29T04:01:57.358Z,98130.00
2022-07-29T04:03:00.486Z,98122.38
2022-07-29T04:04:03.795Z,98131.13
2022-07-29T04:05:06.755Z,98125.41
2022-07-29T04:06:09.700Z,98124.19
2022-07-29T04:07:16.664Z,98125.31
2022-07-29T04:08:19.514Z,98127.25
2022-07-29T04:09:22.420Z,98126.97
2022-07-29T04:10:30.331Z,98123.91
2022-07-29T04:12:02.556Z,98124.31
2022-07-29T04:12:59.103Z,98128.47
2022-07-29T04:14:01.843Z,98122.75
2022-07-29T04:15:05.625Z,98127.63
2022-07-29T04:16:08.299Z,98127.25
2022-07-29T04:17:16.227Z,98126.87
2022-07-29T04:18:19.055Z,98126.47
2022-07-29T04:19:21.904Z,98127.63
2022-07-29T04:20:24.714Z,98133.03
2022-07-29T04:21:27.705Z,98132.28
2022-07-29T04:22:30.428Z,98126.94
2022-07-29T04:23:34.628Z,98130.06
2022-07-29T04:24:37.379Z,98136.63
2022-07-29T04:25:41.709Z,98125.25
2022-07-29T04:26:44.696Z,98133.53
2022-07-29T04:28:02.764Z,98124.63
2022-07-29T04:29:05.751Z,98122.00
2022-07-29T04:30:08.814Z,98124.59
2022-07-29T04:31:12.552Z,98133.37
2022-07-29T04:32:15.237Z,98135.31
2022-07-29T04:33:18.049Z,98128.94
2022-07-29T04:34:21.297Z,98130.41
2022-07-29T04:35:24.057Z,98133.19
2022-07-29T04:36:29.158Z,98132.44
2022-07-29T04:37:32.741Z,98128.94
2022-07-29T04:38:35.455Z,98128.22
2022-07-29T04:39:38.174Z,98130.22
2022-07-29T04:40:40.798Z,98138.91
2022-07-29T04:41:44.125Z,98135.91
2022-07-29T04:42:47.889Z,98137.75
2022-07-29T04:43:52.249Z,98133.94
2022-07-29T04:44:54.853Z,98139.28
2022-07-29T04:45:58.145Z,98137.34
2022-07-29T04:47:01.247Z,98141.66
2022-07-29T04:48:04.157Z,98140.53
2022-07-29T04:49:07.028Z,98142.47
2022-07-29T04:50:10.661Z,98137.19
2022-07-29T04:51:13.843Z,98136.50
2022-07-29T04:52:16.498Z,98150.56
2022-07-29T04:53:19.222Z,98136.06
2022-07-29T04:54:21.949Z,98133.81
2022-07-29T04:55:24.705Z,98134.97
2022-07-29T04:56:27.742Z,98136.88
2022-07-29T04:57:30.602Z,98134.22
2022-07-29T04:58:36.370Z,98136.56
2022-07-29T04:59:39.097Z,98139.25
2022-07-29T05:00:42.016Z,98136.25
2022-07-29T05:01:44.981Z,98132.84
2022-07-29T05:02:48.053Z,98136.94
2022-07-29T05:03:51.097Z,98134.69
2022-07-29T05:04:54.179Z,98140.81
2022-07-29T05:05:57.231Z,98139.72
2022-07-29T05:07:00.129Z,98142.03
2022-07-29T05:08:03.588Z,98141.69
2022-07-29T05:09:06.622Z,98146.28
2022-07-29T05:10:10.139Z,98140.59
2022-07-29T05:11:16.924Z,98143.63
2022-07-29T05:12:22.676Z,98141.00
2022-07-29T05:13:25.635Z,98139.47
2022-07-29T05:14:28.922Z,98140.31
2022-07-29T05:15:32.011Z,98142.22
2022-07-29T05:16:35.188Z,98136.13
2022-07-29T05:17:38.533Z,98138.06
2022-07-29T05:18:41.524Z,98141.16
2022-07-29T05:19:44.678Z,98133.13
2022-07-29T05:20:47.697Z,98133.94
2022-07-29T05:21:52.764Z,98132.00
2022-07-29T05:23:00.484Z,98140.06
2022-07-29T05:24:03.527Z,98140.09
2022-07-29T05:25:09.152Z,98133.53
2022-07-29T05:26:13.315Z,98133.53
2022-07-29T05:27:16.331Z,98133.53
2022-07-29T05:28:19.216Z,98137.00
2022-07-29T05:29:44.819Z,98138.94
2022-07-29T05:30:45.652Z,98146.56
2022-07-29T05:31:48.783Z,98139.72
2022-07-29T05:32:51.759Z,98139.69
2022-07-29T05:33:54.817Z,98132.81
2022-07-29T05:34:57.729Z,98139.72
2022-07-29T05:36:01.245Z,98135.13
2022-07-29T05:37:04.267Z,98140.56
2022-07-29T05:38:07.216Z,98140.16
2022-07-29T05:39:10.494Z,98139.78
2022-07-29T05:40:13.481Z,98142.50
2022-07-29T05:41:16.561Z,98137.47
2022-07-29T05:42:19.572Z,98135.59
2022-07-29T05:43:22.496Z,98141.34
2022-07-29T05:44:25.644Z,98147.44
2022-07-29T05:45:28.780Z,98147.44
2022-07-29T05:46:32.218Z,98140.59
2022-07-29T05:47:35.856Z,98143.25
2022-07-29T05:48:39.002Z,98147.09
2022-07-29T05:49:42.024Z,98141.37
2022-07-29T05:50:44.870Z,98140.97
2022-07-29T05:51:49.131Z,98143.25
2022-07-29T05:52:52.037Z,98147.84
2022-07-29T05:53:55.157Z,98155.13
2022-07-29T05:54:58.188Z,98147.47
2022-07-29T05:56:06.136Z,98148.59
2022-07-29T05:57:09.309Z,98152.81
2022-07-29T05:58:12.338Z,98153.19
2022-07-29T05:59:18.122Z,98147.84
2022-07-29T06:00:21.453Z,98143.66
2022-07-29T06:01:24.614Z,98150.16
2022-07-29T06:02:27.598Z,98150.53
2022-07-29T06:03:31.556Z,98149.78
2022-07-29T06:04:35.080Z,98151.28
2022-07-29T06:05:38.062Z,98155.87
2022-07-29T06:06:41.108Z,98152.84
2022-07-29T06:07:50.728Z,98150.53
2022-07-29T06:08:54.719Z,98150.94
2022-07-29T06:09:57.599Z,98155.50
2022-07-29T06:11:01.424Z,98153.19
2022-07-29T06:12:04.713Z,98153.59
2022-07-29T06:13:07.782Z,98161.25
2022-07-29T06:14:10.914Z,98154.34
2022-07-29T06:15:13.841Z,98153.59
2022-07-29T06:16:16.847Z,98161.59
2022-07-29T06:17:33.844Z,98161.25
2022-07-29T06:18:36.846Z,98157.00
2022-07-29T06:19:39.850Z,98160.75
2022-07-29T06:20:43.059Z,98150.03
2022-07-29T06:21:47.788Z,98163.06
2022-07-29T06:22:50.842Z,98161.12
2022-07-29T06:23:54.325Z,98165.72
2022-07-29T06:24:57.355Z,98162.28
2022-07-29T06:26:01.051Z,98159.94
2022-07-29T06:27:04.660Z,98159.13
2022-07-29T06:28:07.829Z,98157.22
2022-07-29T06:29:14.317Z,98158.31
2022-07-29T06:30:17.259Z,98157.50
2022-07-29T06:31:20.176Z,98164.34
2022-07-29T06:32:23.597Z,98159.03
2022-07-29T06:33:34.985Z,98164.00
2022-07-29T06:34:38.000Z,98171.63
2022-07-29T06:35:44.716Z,98162.44
2022-07-29T06:36:55.596Z,98165.78
2022-07-29T06:37:59.709Z,98168.88
2022-07-29T06:39:04.845Z,98163.09
2022-07-29T06:40:27.929Z,98175.34
2022-07-29T06:41:30.883Z,98165.31
2022-07-29T06:42:33.823Z,98171.41
2022-07-29T06:43:50.219Z,98174.41
2022-07-29T06:44:54.200Z,98169.31
2022-07-29T06:45:57.518Z,98177.25
2022-07-29T06:47:01.283Z,98179.16
2022-07-29T06:48:04.757Z,98189.13
2022-07-29T06:49:07.967Z,98181.03
2022-07-29T06:50:13.923Z,98184.09
2022-07-29T06:51:23.306Z,98182.62
2022-07-29T06:52:26.979Z,98175.38
2022-07-29T06:53:31.219Z,98183.78
2022-07-29T06:54:34.226Z,98179.63
2022-07-29T06:55:38.267Z,98177.69
2022-07-29T06:56:43.146Z,98175.66
2022-07-29T06:57:47.636Z,98178.72
2022-07-29T06:58:54.488Z,98179.06
2022-07-29T07:00:00.005Z,98174.72
2022-07-29T07:01:05.903Z,98179.72
2022-07-29T07:02:09.077Z,98174.97
2022-07-29T07:03:12.870Z,98178.75
2022-07-29T07:04:16.063Z,98172.06
2022-07-29T07:05:20.116Z,98178.84
2022-07-29T07:06:23.216Z,98178.69
2022-07-29T07:07:26.711Z,98173.94
2022-07-29T07:08:29.630Z,98170.41
2022-07-29T07:09:40.548Z,98176.88
2022-07-29T07:10:44.415Z,98180.50
2022-07-29T07:11:49.581Z,98180.84
2022-07-29T07:12:57.187Z,98175.66
2022-07-29T07:14:03.424Z,98172.81
2022-07-29T07:15:07.780Z,98174.13
2022-07-29T07:16:10.764Z,98178.94
2022-07-29T07:17:13.603Z,98176.16
2022-07-29T07:18:17.219Z,98181.81
2022-07-29T07:19:20.556Z,98183.81
2022-07-29T07:20:23.738Z,98175.94
2022-07-29T07:21:30.687Z,98182.59
2022-07-29T07:22:38.648Z,98185.19
2022-07-29T07:23:42.273Z,98186.22
2022-07-29T07:24:45.212Z,98177.78
2022-07-29T07:25:48.158Z,98181.88
2022-07-29T07:26:51.349Z,98188.16
2022-07-29T07:27:54.456Z,98178.47
2022-07-29T07:28:57.984Z,98176.69
2022-07-29T07:30:02.246Z,98185.91
2022-07-29T07:31:05.392Z,98181.59
2022-07-29T07:32:08.902Z,98190.25
2022-07-29T07:33:12.129Z,98182.09
2022-07-29T07:34:15.340Z,98185.38
2022-07-29T07:35:18.491Z,98183.28
2022-07-29T07:36:21.704Z,98180.91
2022-07-29T07:37:26.128Z,98187.78
2022-07-29T07:38:29.229Z,98184.22
2022-07-29T07:39:32.316Z,98186.06
2022-07-29T07:40:35.398Z,98185.88
2022-07-29T07:41:38.518Z,98183.44
2022-07-29T07:42:42.729Z,98186.56
2022-07-29T07:43:46.277Z,98184.38
2022-07-29T07:45:11.962Z,98181.75
2022-07-29T07:46:13.359Z,98181.75
2022-07-29T07:47:21.157Z,98179.53
2022-07-29T07:48:25.241Z,98190.06
2022-07-29T07:49:28.406Z,98185.63
2022-07-29T07:50:31.580Z,98189.19
2022-07-29T07:51:34.738Z,98183.84
2022-07-29T07:52:50.698Z,98182.50
2022-07-29T07:53:53.621Z,98184.91
2022-07-29T07:54:56.854Z,98185.88
2022-07-29T07:56:10.345Z,98179.37
2022-07-29T07:57:15.111Z,98176.94
2022-07-29T07:58:18.822Z,98184.53
2022-07-29T07:59:21.888Z,98184.28
2022-07-29T08:00:24.929Z,98183.09
2022-07-29T08:01:27.991Z,98180.56
2022-07-29T08:02:31.298Z,98188.84
2022-07-29T08:03:34.721Z,98176.84
2022-07-29T08:04:38.010Z,98187.69
2022-07-29T08:05:41.938Z,98183.41
2022-07-29T08:06:45.153Z,98185.78
2022-07-29T08:07:48.497Z,98178.16
2022-07-29T08:08:51.967Z,98173.78
2022-07-29T08:09:55.023Z,98176.62
2022-07-29T08:10:58.069Z,98182.41
2022-07-29T08:12:03.546Z,98176.69
2022-07-29T08:13:08.166Z,98175.03
2022-07-29T08:14:11.176Z,98172.59
2022-07-29T08:15:16.960Z,98177.38
2022-07-29T08:16:20.368Z,98170.41
2022-07-29T08:17:23.380Z,98169.59
2022-07-29T08:18:29.560Z,98169.06
2022-07-29T08:19:32.493Z,98167.78
2022-07-29T08:20:36.858Z,98166.13
2022-07-29T08:21:40.256Z,98172.50
2022-07-29T08:22:43.090Z,98169.53
2022-07-29T08:24:15.808Z,98175.91
2022-07-29T08:25:21.564Z,98174.09
2022-07-29T08:26:25.124Z,98171.28
2022-07-29T08:27:46.007Z,98173.00
2022-07-29T08:28:51.656Z,98175.28
2022-07-29T08:29:57.119Z,98175.19
2022-07-29T08:31:00.261Z,98175.16
2022-07-29T08:32:04.117Z,98176.81
2022-07-29T08:33:07.209Z,98171.50
2022-07-29T08:34:10.393Z,98178.97
2022-07-29T08:35:13.366Z,98172.37
2022-07-29T08:36:16.487Z,98165.00
2022-07-29T08:37:19.416Z,98174.72
2022-07-29T08:38:22.655Z,98170.31
2022-07-29T08:39:26.273Z,98172.47
2022-07-29T08:40:30.542Z,98167.91
2022-07-29T08:41:36.820Z,98165.34
2022-07-29T08:42:39.996Z,98168.72
2022-07-29T08:43:43.352Z,98172.28
2022-07-29T08:44:46.669Z,98173.75
2022-07-29T08:45:51.831Z,98170.75
2022-07-29T08:46:58.499Z,98174.00
2022-07-29T08:48:01.829Z,98179.19
2022-07-29T08:49:08.491Z,98170.25
2022-07-29T08:50:12.189Z,98172.37
2022-07-29T08:51:20.660Z,98169.91
2022-07-29T08:52:27.090Z,98166.56
2022-07-29T08:53:30.520Z,98166.00
2022-07-29T08:54:33.738Z,98166.19
2022-07-29T08:55:40.411Z,98166.34
2022-07-29T08:56:43.514Z,98163.34
2022-07-29T08:57:52.007Z,98161.88
2022-07-29T08:58:59.821Z,98167.72
2022-07-29T09:00:11.663Z,98165.13
2022-07-29T09:01:23.554Z,98172.66
2022-07-29T09:02:49.457Z,98174.03
2022-07-29T09:03:57.682Z,98162.84
2022-07-29T09:05:03.324Z,98168.91
2022-07-29T09:06:07.087Z,98162.09
2022-07-29T09:07:10.700Z,98164.75
2022-07-29T09:08:15.637Z,98169.81
2022-07-29T09:09:18.725Z,98167.53
2022-07-29T09:10:21.937Z,98170.09
2022-07-29T09:11:25.165Z,98165.31
2022-07-29T09:12:29.435Z,98170.94
2022-07-29T09:13:37.289Z,98170.34
2022-07-29T09:14:44.436Z,98165.81
2022-07-29T09:15:48.970Z,98163.31
2022-07-29T09:16:55.394Z,98159.69
2022-07-29T09:17:59.701Z,98162.56
2022-07-29T09:19:02.740Z,98158.47
2022-07-29T09:20:18.386Z,98173.31
2022-07-29T09:21:40.135Z,98164.66
2022-07-29T09:22:43.407Z,98155.31
2022-07-29T09:24:02.873Z,98158.94
2022-07-29T09:25:06.523Z,98162.09
2022-07-29T09:26:09.650Z,98162.16
2022-07-29T09:27:22.132Z,98157.25
2022-07-29T09:28:26.851Z,98152.94
2022-07-29T09:29:33.283Z,98164.13
2022-07-29T09:30:58.190Z,98168.19
2022-07-29T09:32:01.242Z,98157.25
2022-07-29T09:33:05.247Z,98158.31
2022-07-29T09:34:09.860Z,98157.28
2022-07-29T09:35:18.115Z,98153.62
2022-07-29T09:36:21.154Z,98154.13
2022-07-29T09:37:29.191Z,98151.59
2022-07-29T09:38:33.273Z,98142.88
2022-07-29T09:39:39.304Z,98148.19
2022-07-29T09:40:42.299Z,98149.56
2022-07-29T09:41:57.829Z,98145.41
2022-07-29T09:43:12.094Z,98138.00
2022-07-29T09:44:16.041Z,98136.59
2022-07-29T09:45:29.560Z,98138.25
2022-07-29T09:46:32.528Z,98147.16
2022-07-29T09:48:14.959Z,98144.16
2022-07-29T09:49:18.106Z,98135.34
2022-07-29T09:50:25.166Z,98135.06
2022-07-29T09:51:38.446Z,98139.34
2022-07-29T09:53:00.033Z,98140.56
2022-07-29T09:54:05.295Z,98141.22
2022-07-29T09:55:09.875Z,98138.09
2022-07-29T09:56:16.684Z,98138.22
2022-07-29T09:57:27.319Z,98139.97
2022-07-29T09:58:37.317Z,98134.88
2022-07-29T09:59:50.090Z,98140.72
2022-07-29T10:00:56.090Z,98134.66
2022-07-29T10:02:02.499Z,98135.56
2022-07-29T10:03:05.520Z,98135.38
2022-07-29T10:04:08.570Z,98135.97
2022-07-29T10:05:27.393Z,98128.34
2022-07-29T10:07:04.864Z,98130.94
2022-07-29T10:08:10.054Z,98137.22
2022-07-29T10:09:12.991Z,98135.00
2022-07-29T10:10:23.755Z,98135.47
2022-07-29T10:11:26.797Z,98128.47
2022-07-29T10:12:52.886Z,98122.66
2022-07-29T10:13:56.063Z,98126.13
2022-07-29T10:14:59.060Z,98126.69
2022-07-29T10:16:02.816Z,98122.47
2022-07-29T10:17:07.373Z,98129.50
2022-07-29T10:18:12.046Z,98128.00
2022-07-29T10:19:15.348Z,98129.59
2022-07-29T10:20:18.586Z,98128.03
2022-07-29T10:21:34.513Z,98129.06
2022-07-29T10:22:55.702Z,98128.22
2022-07-29T10:24:03.551Z,98121.44
2022-07-29T10:25:06.695Z,98126.03
2022-07-29T10:26:12.347Z,98131.09
2022-07-29T10:27:15.398Z,98130.38
2022-07-29T10:28:18.260Z,98120.13
2022-07-29T10:29:24.835Z,98122.66
2022-07-29T10:30:28.364Z,98127.91
2022-07-29T10:31:43.530Z,98118.09
2022-07-29T10:33:05.256Z,98113.72
2022-07-29T10:34:45.671Z,98121.00
2022-07-29T10:35:51.558Z,98119.72
2022-07-29T10:37:29.111Z,98116.50
2022-07-29T10:38:48.156Z,98119.00
2022-07-29T10:40:01.990Z,98107.75
2022-07-29T10:41:44.800Z,98125.09
2022-07-29T10:42:48.146Z,98114.12
2022-07-29T10:44:08.289Z,98100.59
2022-07-29T10:45:11.513Z,98104.50
2022-07-29T10:46:16.334Z,98112.03
2022-07-29T10:47:23.057Z,98107.47
2022-07-29T10:48:26.593Z,98102.87
2022-07-29T10:49:31.193Z,98098.44
2022-07-29T10:50:54.459Z,98097.53
2022-07-29T10:52:05.806Z,98093.25
2022-07-29T10:53:09.233Z,98097.81
2022-07-29T10:54:37.601Z,98100.63
2022-07-29T10:55:45.667Z,98098.84
2022-07-29T10:56:50.920Z,98099.28
2022-07-29T10:58:19.177Z,98103.50
2022-07-29T10:59:22.904Z,98094.59
2022-07-29T11:00:31.978Z,98090.50
2022-07-29T11:01:37.519Z,98091.97
2022-07-29T11:02:45.056Z,98094.22
2022-07-29T11:03:52.356Z,98082.13
2022-07-29T11:04:56.890Z,98107.88
2022-07-29T11:06:00.194Z,98093.69
2022-07-29T11:07:06.317Z,98096.50
2022-07-29T11:08:20.359Z,98103.13
2022-07-29T11:10:50.669Z,98092.59
2022-07-29T11:11:54.222Z,98084.78
2022-07-29T11:12:57.307Z,98083.62
2022-07-29T11:14:00.314Z,98085.56
2022-07-29T11:15:04.920Z,98097.44
2022-07-29T11:16:08.265Z,98093.22
2022-07-29T11:17:14.029Z,98089.31
2022-07-29T11:18:20.396Z,98092.62
2022-07-29T11:19:30.625Z,98087.66
2022-07-29T11:20:50.413Z,98088.97
2022-07-29T11:21:58.401Z,98083.69
2022-07-29T11:23:02.578Z,98076.31
2022-07-29T11:24:30.180Z,98075.06
2022-07-29T11:25:43.024Z,98079.25
2022-07-29T11:28:36.872Z,98072.06
2022-07-29T11:29:48.886Z,98072.97
2022-07-29T11:30:54.636Z,98068.00
2022-07-29T11:33:56.371Z,98076.00
2022-07-29T11:37:13.986Z,98056.75
2022-07-29T11:38:31.847Z,98051.69
2022-07-29T11:39:40.192Z,98054.50
2022-07-29T11:41:02.998Z,98048.13
2022-07-29T11:42:18.459Z,98049.09
2022-07-29T11:43:55.218Z,98044.69
2022-07-29T11:45:41.397Z,98047.50
2022-07-29T11:46:50.116Z,98046.75
2022-07-29T11:48:27.555Z,98047.91
2022-07-29T11:49:32.183Z,98042.16
2022-07-29T11:50:44.710Z,98039.50
2022-07-29T11:51:56.491Z,98060.62
2022-07-29T11:53:00.921Z,98043.16
2022-07-29T11:54:05.528Z,98039.25
2022-07-29T11:55:23.788Z,98038.31
2022-07-29T11:56:40.468Z,98034.37
2022-07-29T11:58:04.226Z,98044.69
2022-07-29T11:59:10.523Z,98041.22
2022-07-29T12:00:31.405Z,98047.44
2022-07-29T12:01:34.393Z,98048.81
2022-07-29T12:02:48.326Z,98049.56
2022-07-29T12:04:04.922Z,98047.06
2022-07-29T12:05:12.232Z,98044.19
2022-07-29T12:06:18.170Z,98049.37
2022-07-29T12:07:01.470Z,98065.09
2022-07-29T12:07:03.498Z,98059.44
2022-07-29T12:07:35.466Z,98037.09
2022-07-29T12:08:43.950Z,98041.87
2022-07-29T12:09:56.949Z,98031.84
2022-07-29T12:11:02.406Z,98044.41
2022-07-29T12:12:06.057Z,98042.16
2022-07-29T12:13:10.043Z,98028.47
2022-07-29T12:14:31.781Z,98031.41
2022-07-29T12:15:45.632Z,98030.25
2022-07-29T12:16:49.730Z,98030.19
2022-07-29T12:17:52.954Z,98026.63
2022-07-29T12:19:04.105Z,98032.28
2022-07-29T12:20:08.191Z,98029.78
2022-07-29T12:21:12.466Z,98024.75
2022-07-29T12:22:26.945Z,98029.72
2022-07-29T12:23:34.435Z,98027.59
2022-07-29T12:24:45.881Z,98030.69
2022-07-29T12:25:55.492Z,98021.34
2022-07-29T12:27:02.394Z,98012.25
2022-07-29T12:28:14.236Z,98025.03
2022-07-29T12:29:35.118Z,98022.31
2022-07-29T12:30:45.709Z,98005.47
2022-07-29T12:31:57.836Z,98010.91
2022-07-29T12:33:01.224Z,98014.97
2022-07-29T12:34:04.313Z,98015.81
2022-07-29T12:35:14.629Z,98004.91
2022-07-29T12:36:18.047Z,97998.59
2022-07-29T12:37:30.878Z,98002.44
2022-07-29T12:38:45.843Z,97996.87
2022-07-29T12:39:49.018Z,97999.13
2022-07-29T12:40:54.875Z,98000.91
2022-07-29T12:41:59.787Z,97992.38
2022-07-29T12:43:17.644Z,97990.34
2022-07-29T12:44:20.549Z,97992.66
2022-07-29T12:45:30.835Z,98004.50
2022-07-29T12:46:33.650Z,98006.28
2022-07-29T12:47:52.622Z,97984.75
2022-07-29T12:48:56.321Z,97990.63
2022-07-29T12:50:12.142Z,97994.19
2022-07-29T12:51:17.760Z,98000.19
2022-07-29T12:52:30.918Z,97993.56
2022-07-29T12:53:34.093Z,97995.19
2022-07-29T12:54:48.624Z,97980.91
2022-07-29T12:55:53.588Z,97982.84
2022-07-29T12:57:01.076Z,97989.78
2022-07-29T12:58:04.352Z,97977.22
2022-07-29T12:59:23.175Z,97980.38
2022-07-29T13:00:26.262Z,97984.41
2022-07-29T13:01:38.224Z,97982.78
2022-07-29T13:02:43.774Z,97982.88
2022-07-29T13:03:57.170Z,97985.91
2022-07-29T13:05:02.871Z,97981.37
2022-07-29T13:06:06.115Z,97977.81
2022-07-29T13:07:10.562Z,97981.00
2022-07-29T13:08:20.078Z,97984.03
2022-07-29T13:09:25.040Z,97990.13
2022-07-29T13:10:29.905Z,97988.44
2022-07-29T13:11:34.224Z,97981.37
2022-07-29T13:12:37.990Z,97978.94
2022-07-29T13:14:05.890Z,97975.44
2022-07-29T13:15:15.882Z,97969.91
2022-07-29T13:16:18.958Z,97962.97